createdAt,value
2019-03-25T00:01:52.460Z,43.07
2019-03-25T00:04:23.099Z,45.67
2019-03-25T00:06:53.709Z,47.13
2019-03-25T00:09:24.211Z,43.03
2019-03-25T00:11:54.808Z,43.77
2019-03-25T00:14:25.308Z,43.57
2019-03-25T00:16:55.847Z,43.73
2019-03-25T00:19:26.394Z,44.97
2019-03-25T00:21:57.003Z,41.40
2019-03-25T00:24:38.148Z,35.27
2019-03-25T00:27:00.781Z,44.07
2019-03-25T00:29:31.310Z,45.47
2019-03-25T00:32:01.840Z,44.50
2019-03-25T00:34:32.361Z,43.50
2019-03-25T00:37:04.104Z,38.33
2019-03-25T00:39:34.576Z,39.87
2019-03-25T00:42:05.128Z,34.80
2019-03-25T00:44:35.570Z,42.47
2019-03-25T00:47:06.117Z,41.10
2019-03-25T00:49:36.807Z,42.10
2019-03-25T00:52:07.372Z,42.50
2019-03-25T00:54:49.366Z,42.13
2019-03-25T00:57:10.085Z,40.57
2019-03-25T00:59:41.065Z,39.63
2019-03-25T01:02:11.596Z,41.23
2019-03-25T01:04:42.254Z,43.30
2019-03-25T01:07:12.787Z,41.43
2019-03-25T01:09:43.335Z,41.53
2019-03-25T01:12:13.858Z,41.13
2019-03-25T01:14:44.357Z,38.87
2019-03-25T01:17:14.861Z,43.00
2019-03-25T01:19:45.443Z,39.70
2019-03-25T01:22:15.900Z,41.03
2019-03-25T01:24:46.446Z,38.40
2019-03-25T01:27:16.993Z,40.97
2019-03-25T01:29:47.469Z,40.90
2019-03-25T01:32:17.951Z,41.70
2019-03-25T01:34:48.330Z,41.23
2019-03-25T01:37:18.860Z,39.73
2019-03-25T01:39:49.317Z,41.80
2019-03-25T01:42:19.941Z,41.53
2019-03-25T01:44:50.494Z,38.00
2019-03-25T01:47:21.026Z,41.27
2019-03-25T01:49:51.452Z,40.03
2019-03-25T01:52:23.080Z,42.63
2019-03-25T01:54:54.510Z,39.63
2019-03-25T01:57:25.036Z,39.20
2019-03-25T01:59:55.885Z,41.90
2019-03-25T02:02:26.426Z,41.53
2019-03-25T02:04:56.938Z,40.90
2019-03-25T02:07:27.403Z,39.87
2019-03-25T02:09:57.933Z,42.13
2019-03-25T02:12:28.398Z,40.93
2019-03-25T02:14:58.957Z,40.70
2019-03-25T02:17:29.625Z,41.13
2019-03-25T02:20:00.343Z,41.23
2019-03-25T02:22:30.982Z,42.87
2019-03-25T02:25:01.648Z,40.40
2019-03-25T02:27:32.196Z,43.00
2019-03-25T02:30:02.767Z,41.57
2019-03-25T02:32:34.390Z,42.30
2019-03-25T02:35:05.144Z,39.50
2019-03-25T02:37:35.613Z,43.50
2019-03-25T02:40:06.714Z,42.83
2019-03-25T02:42:38.202Z,42.60
2019-03-25T02:45:09.087Z,42.70
2019-03-25T02:47:39.565Z,39.83
2019-03-25T02:50:10.441Z,46.73
2019-03-25T02:52:41.114Z,45.67
2019-03-25T02:55:11.844Z,47.33
2019-03-25T02:57:42.302Z,47.20
2019-03-25T03:00:13.994Z,48.37
2019-03-25T03:02:44.464Z,48.73
2019-03-25T03:05:17.593Z,47.50
2019-03-25T03:07:47.997Z,46.77
2019-03-25T03:10:18.594Z,48.67
2019-03-25T03:12:49.076Z,48.43
2019-03-25T03:15:19.502Z,49.07
2019-03-25T03:17:50.045Z,50.97
2019-03-25T03:20:20.698Z,47.80
2019-03-25T03:22:51.075Z,49.53
2019-03-25T03:25:21.542Z,48.93
2019-03-25T03:27:52.017Z,53.13
2019-03-25T03:30:22.432Z,52.63
2019-03-25T03:32:52.927Z,51.90
2019-03-25T03:35:23.469Z,49.30
2019-03-25T03:37:53.940Z,49.57
2019-03-25T03:40:24.564Z,48.97
2019-03-25T03:42:55.226Z,49.43
2019-03-25T03:45:25.702Z,50.50
2019-03-25T03:47:56.248Z,51.80
2019-03-25T03:50:28.485Z,50.83
2019-03-25T03:53:00.010Z,51.97
2019-03-25T03:55:31.448Z,48.90
2019-03-25T03:58:02.204Z,49.63
2019-03-25T04:00:34.483Z,46.97
2019-03-25T04:03:05.020Z,44.73
2019-03-25T04:05:35.671Z,49.07
2019-03-25T04:08:06.196Z,49.40
2019-03-25T04:10:36.736Z,49.40
2019-03-25T04:13:07.264Z,47.20
2019-03-25T04:15:37.701Z,48.43
2019-03-25T04:18:08.162Z,46.27
2019-03-25T04:20:38.681Z,46.40
2019-03-25T04:23:09.299Z,47.77
2019-03-25T04:25:39.768Z,47.20
2019-03-25T04:28:10.350Z,45.03
2019-03-25T04:30:40.841Z,46.00
2019-03-25T04:33:11.288Z,43.90
2019-03-25T04:35:41.926Z,45.40
2019-03-25T04:38:12.431Z,44.77
2019-03-25T04:40:42.961Z,43.67
2019-03-25T04:43:13.386Z,43.33
2019-03-25T04:45:43.925Z,43.63
2019-03-25T04:48:14.492Z,45.83
2019-03-25T04:50:44.951Z,48.17
2019-03-25T04:53:15.391Z,45.90
2019-03-25T04:55:45.860Z,49.40
2019-03-25T04:58:16.303Z,47.37
2019-03-25T05:00:46.922Z,46.20
2019-03-25T05:03:17.426Z,49.90
2019-03-25T05:05:48.023Z,47.63
2019-03-25T05:08:18.411Z,50.00
2019-03-25T05:10:48.911Z,48.43
2019-03-25T05:13:19.488Z,49.07
2019-03-25T05:15:50.012Z,50.73
2019-03-25T05:18:20.470Z,45.70
2019-03-25T05:20:50.936Z,47.67
2019-03-25T05:23:21.463Z,47.47
2019-03-25T05:25:51.984Z,47.47
2019-03-25T05:28:22.443Z,47.30
2019-03-25T05:30:52.918Z,47.50
2019-03-25T05:33:23.395Z,47.40
2019-03-25T05:35:55.584Z,47.03
2019-03-25T05:38:26.086Z,45.73
2019-03-25T05:40:56.673Z,45.63
2019-03-25T05:43:27.115Z,43.33
2019-03-25T05:45:57.587Z,41.13
2019-03-25T05:48:28.104Z,43.97
2019-03-25T05:50:58.701Z,39.10
2019-03-25T05:53:29.166Z,40.00
2019-03-25T05:55:59.616Z,37.67
2019-03-25T05:58:30.070Z,37.40
2019-03-25T06:01:00.443Z,34.63
2019-03-25T06:03:30.983Z,31.00
2019-03-25T06:06:01.962Z,32.00
2019-03-25T06:08:32.338Z,28.80
2019-03-25T06:11:02.999Z,25.27
2019-03-25T06:13:33.515Z,28.63
2019-03-25T06:16:04.065Z,28.83
2019-03-25T06:18:34.619Z,31.67
2019-03-25T06:21:05.077Z,29.90
2019-03-25T06:23:35.540Z,28.50
2019-03-25T06:26:08.583Z,28.43
2019-03-25T06:28:42.018Z,25.87
2019-03-25T06:31:12.542Z,18.57
2019-03-25T06:33:42.983Z,19.13
2019-03-25T06:36:13.425Z,19.93
2019-03-25T06:38:43.881Z,18.87
2019-03-25T06:41:14.315Z,17.13
2019-03-25T06:43:44.890Z,13.93
2019-03-25T06:46:15.369Z,14.57
2019-03-25T06:48:45.739Z,15.13
2019-03-25T06:51:17.538Z,14.97
2019-03-25T06:53:48.320Z,15.80
2019-03-25T06:56:19.810Z,14.83
2019-03-25T06:58:50.287Z,15.07
2019-03-25T07:01:20.737Z,14.77
2019-03-25T07:03:51.184Z,13.67
2019-03-25T07:06:22.200Z,14.37
2019-03-25T07:08:52.771Z,15.50
2019-03-25T07:11:23.517Z,14.77
2019-03-25T07:13:54.432Z,15.30
2019-03-25T07:16:24.861Z,14.83
2019-03-25T07:18:55.479Z,14.83
2019-03-25T07:21:26.021Z,15.40
2019-03-25T07:23:56.542Z,15.43
2019-03-25T07:26:26.970Z,15.93
2019-03-25T07:28:58.475Z,14.20
2019-03-25T07:31:29.049Z,14.60
2019-03-25T07:33:59.591Z,16.83
2019-03-25T07:36:30.126Z,15.37
2019-03-25T07:39:00.582Z,15.23
2019-03-25T07:41:32.662Z,14.20
2019-03-25T07:44:03.127Z,14.77
2019-03-25T07:46:33.590Z,14.13
2019-03-25T07:49:04.035Z,14.67
2019-03-25T07:51:34.563Z,14.83
2019-03-25T07:54:05.110Z,14.23
2019-03-25T07:56:35.521Z,15.00
2019-03-25T07:59:05.984Z,13.10
2019-03-25T08:01:36.608Z,13.97
2019-03-25T08:04:08.173Z,12.67
2019-03-25T08:06:39.195Z,12.43
2019-03-25T08:09:10.113Z,13.10
2019-03-25T08:11:40.561Z,12.23
2019-03-25T08:14:11.008Z,11.40
2019-03-25T08:16:41.538Z,12.00
2019-03-25T08:19:12.081Z,11.10
2019-03-25T08:21:42.627Z,12.83
2019-03-25T08:24:13.231Z,12.70
2019-03-25T08:26:43.756Z,13.10
2019-03-25T08:29:14.216Z,13.40
2019-03-25T08:31:44.653Z,11.90
2019-03-25T08:34:15.205Z,12.10
2019-03-25T08:36:45.849Z,12.53
2019-03-25T08:39:16.458Z,11.93
2019-03-25T08:41:46.987Z,11.70
2019-03-25T08:44:17.524Z,11.30
2019-03-25T08:46:47.977Z,11.20
2019-03-25T08:49:18.440Z,11.53
2019-03-25T08:51:48.951Z,11.00
2019-03-25T08:54:19.415Z,10.20
2019-03-25T08:56:50.035Z,10.63
2019-03-25T08:59:20.474Z,10.23
2019-03-25T09:01:50.923Z,9.67
2019-03-25T09:04:21.373Z,9.63
2019-03-25T09:06:51.919Z,9.33
2019-03-25T09:09:22.331Z,9.63
2019-03-25T09:11:52.850Z,8.97
2019-03-25T09:14:23.319Z,9.87
2019-03-25T09:16:53.770Z,9.50
2019-03-25T09:19:24.218Z,9.27
2019-03-25T09:21:54.682Z,9.97
2019-03-25T09:24:25.213Z,10.37
2019-03-25T09:26:55.686Z,7.70
2019-03-25T09:29:26.331Z,7.60
2019-03-25T09:31:57.845Z,8.90
2019-03-25T09:34:28.395Z,8.40
2019-03-25T09:36:58.996Z,8.00
2019-03-25T09:39:29.440Z,8.77
2019-03-25T09:41:59.974Z,8.53
2019-03-25T09:44:30.419Z,7.53
2019-03-25T09:47:01.043Z,8.40
2019-03-25T09:49:31.694Z,8.20
2019-03-25T09:52:02.226Z,9.20
2019-03-25T09:54:32.705Z,9.03
2019-03-25T09:57:03.373Z,8.00
2019-03-25T09:59:33.827Z,7.57
2019-03-25T10:02:04.676Z,7.43
2019-03-25T10:04:35.342Z,7.10
2019-03-25T10:07:06.202Z,6.00
2019-03-25T10:09:36.753Z,7.30
2019-03-25T10:12:07.230Z,6.30
2019-03-25T10:14:37.670Z,7.30
2019-03-25T10:17:08.123Z,6.03
2019-03-25T10:19:38.566Z,6.20
2019-03-25T10:22:09.220Z,6.33
2019-03-25T10:24:40.728Z,6.60
2019-03-25T10:27:11.190Z,5.93
2019-03-25T10:29:41.716Z,5.70
2019-03-25T10:32:15.274Z,5.30
2019-03-25T10:34:45.734Z,5.77
2019-03-25T10:37:16.262Z,5.07
2019-03-25T10:39:46.797Z,5.20
2019-03-25T10:42:17.332Z,4.20
2019-03-25T10:44:47.854Z,3.60
2019-03-25T10:47:18.333Z,4.17
2019-03-25T10:49:48.801Z,4.37
2019-03-25T10:52:19.146Z,4.27
2019-03-25T10:54:49.633Z,3.13
2019-03-25T10:57:20.350Z,3.23
2019-03-25T10:59:50.798Z,3.40
2019-03-25T11:02:21.398Z,2.80
2019-03-25T11:04:53.185Z,3.07
2019-03-25T11:07:23.785Z,3.20
2019-03-25T11:09:55.351Z,3.00
2019-03-25T11:12:25.999Z,2.90
2019-03-25T11:14:57.758Z,3.47
2019-03-25T11:17:28.241Z,3.10
2019-03-25T11:19:58.723Z,2.97
2019-03-25T11:22:30.146Z,3.37
2019-03-25T11:25:00.651Z,3.23
2019-03-25T11:27:31.219Z,3.03
2019-03-25T11:30:03.211Z,2.90
2019-03-25T11:32:33.766Z,2.90
2019-03-25T11:35:05.688Z,2.93
2019-03-25T11:37:37.116Z,2.90
2019-03-25T11:40:08.801Z,2.93
2019-03-25T11:42:39.309Z,2.67
2019-03-25T11:45:10.915Z,2.77
2019-03-25T11:47:41.548Z,2.30
2019-03-25T11:50:12.632Z,1.90
2019-03-25T11:52:43.114Z,2.20
2019-03-25T11:55:13.698Z,2.90
2019-03-25T11:57:44.286Z,2.67
2019-03-25T12:00:16.301Z,2.70
2019-03-25T12:02:46.747Z,2.47
2019-03-25T12:05:17.433Z,2.47
2019-03-25T12:07:47.887Z,2.87
2019-03-25T12:10:18.672Z,2.60
2019-03-25T12:12:49.224Z,2.90
2019-03-25T12:15:19.921Z,2.87
2019-03-25T12:17:50.357Z,2.87
2019-03-25T12:20:21.788Z,2.60
2019-03-25T12:22:52.235Z,3.30
2019-03-25T12:25:22.729Z,3.00
2019-03-25T12:27:53.282Z,3.10
2019-03-25T12:30:23.941Z,2.70
2019-03-25T12:33:03.574Z,2.67
2019-03-25T12:35:26.750Z,2.70
2019-03-25T12:37:57.285Z,2.67
2019-03-25T12:40:28.045Z,2.90
2019-03-25T12:42:58.561Z,2.40
2019-03-25T12:45:29.070Z,3.47
2019-03-25T12:47:59.584Z,2.83
2019-03-25T12:50:30.058Z,2.80
2019-03-25T12:53:00.580Z,3.20
2019-03-25T12:55:31.143Z,2.90
2019-03-25T12:58:01.868Z,3.40
2019-03-25T13:00:50.559Z,2.90
2019-03-25T13:03:20.922Z,2.50
2019-03-25T13:05:51.473Z,2.60
2019-03-25T13:08:32.603Z,2.60
2019-03-25T13:10:54.247Z,2.63
2019-03-25T13:13:24.755Z,2.70
2019-03-25T13:15:55.234Z,2.10
2019-03-25T13:18:25.738Z,2.83
2019-03-25T13:20:56.345Z,3.43
2019-03-25T13:23:26.775Z,3.63
2019-03-25T13:25:57.254Z,3.77
2019-03-25T13:28:28.778Z,4.43
2019-03-25T13:30:59.493Z,3.93
2019-03-25T13:33:29.969Z,3.83
2019-03-25T13:36:00.450Z,3.33
2019-03-25T13:38:31.088Z,3.50
2019-03-25T13:41:06.376Z,3.50
2019-03-25T13:43:36.896Z,3.30
2019-03-25T13:46:07.604Z,3.77
2019-03-25T13:48:38.161Z,3.50
2019-03-25T13:51:08.746Z,3.67
2019-03-25T13:53:39.216Z,3.90
2019-03-25T13:56:09.719Z,3.43
2019-03-25T13:58:40.159Z,2.87
2019-03-25T14:01:11.765Z,2.93
2019-03-25T14:03:42.222Z,2.83
2019-03-25T14:06:12.796Z,2.60
2019-03-25T14:08:43.323Z,2.53
2019-03-25T14:11:13.932Z,2.60
2019-03-25T14:13:49.080Z,2.70
2019-03-25T14:16:17.001Z,3.00
2019-03-25T14:18:47.521Z,3.13
2019-03-25T14:21:18.013Z,3.10
2019-03-25T14:23:48.528Z,3.20
2019-03-25T14:26:18.977Z,2.20
2019-03-25T14:28:49.535Z,3.07
2019-03-25T14:31:20.043Z,2.30
2019-03-25T14:33:50.600Z,2.40
2019-03-25T14:36:21.084Z,2.93
2019-03-25T14:38:51.639Z,2.80
2019-03-25T14:41:22.086Z,3.00
2019-03-25T14:43:52.644Z,2.63
2019-03-25T14:46:23.191Z,3.00
2019-03-25T14:48:54.778Z,3.13
2019-03-25T14:51:25.252Z,3.60
2019-03-25T14:53:55.718Z,4.10
2019-03-25T14:56:26.159Z,4.27
2019-03-25T14:58:56.667Z,4.80
2019-03-25T15:01:27.242Z,4.40
2019-03-25T15:03:57.904Z,4.07
2019-03-25T15:06:28.340Z,2.97
2019-03-25T15:08:59.065Z,4.00
2019-03-25T15:11:29.518Z,3.67
2019-03-25T15:14:00.274Z,3.40
2019-03-25T15:16:30.821Z,2.60
2019-03-25T15:19:01.485Z,3.93
2019-03-25T15:21:32.081Z,3.63
2019-03-25T15:24:02.586Z,4.57
2019-03-25T15:26:33.064Z,3.80
2019-03-25T15:29:03.508Z,3.73
2019-03-25T15:31:34.141Z,3.70
2019-03-25T15:34:04.627Z,3.60
2019-03-25T15:36:35.078Z,3.53
2019-03-25T15:39:08.080Z,3.67
2019-03-25T15:41:38.720Z,3.60
2019-03-25T15:44:09.200Z,3.33
2019-03-25T15:46:40.776Z,3.77
2019-03-25T15:49:11.410Z,3.60
2019-03-25T15:51:43.875Z,3.63
2019-03-25T15:54:14.382Z,3.73
2019-03-25T15:56:44.815Z,3.90
2019-03-25T15:59:15.291Z,4.30
2019-03-25T16:01:45.956Z,3.97
2019-03-25T16:04:16.515Z,4.00
2019-03-25T16:06:47.064Z,3.90
2019-03-25T16:09:17.649Z,3.83
2019-03-25T16:11:48.090Z,4.13
2019-03-25T16:14:18.591Z,4.00
2019-03-25T16:16:49.034Z,4.00
2019-03-25T16:19:19.531Z,4.73
2019-03-25T16:21:50.053Z,4.30
2019-03-25T16:24:20.600Z,4.33
2019-03-25T16:26:51.085Z,3.40
2019-03-25T16:29:21.571Z,2.80
2019-03-25T16:31:52.037Z,3.00
2019-03-25T16:34:22.581Z,2.40
2019-03-25T16:36:53.015Z,2.67
2019-03-25T16:39:23.597Z,2.80
2019-03-25T16:41:54.079Z,2.80
2019-03-25T16:44:24.679Z,3.90
2019-03-25T16:46:55.115Z,3.03
2019-03-25T16:49:25.668Z,3.77
2019-03-25T16:51:56.132Z,3.50
2019-03-25T16:54:26.575Z,3.27
2019-03-25T16:56:57.122Z,3.30
2019-03-25T16:59:29.947Z,3.43
2019-03-25T17:02:00.507Z,3.37
2019-03-25T17:04:32.887Z,3.27
2019-03-25T17:07:03.396Z,3.37
2019-03-25T17:09:34.992Z,3.43
2019-03-25T17:12:05.460Z,3.17
2019-03-25T17:14:36.008Z,3.40
2019-03-25T17:17:06.743Z,3.00
2019-03-25T17:19:37.221Z,3.17
2019-03-25T17:22:08.021Z,3.30
2019-03-25T17:24:38.466Z,3.43
2019-03-25T17:27:08.992Z,3.27
2019-03-25T17:29:39.424Z,3.70
2019-03-25T17:32:09.980Z,3.60
2019-03-25T17:34:40.426Z,3.60
2019-03-25T17:37:10.934Z,3.20
2019-03-25T17:39:41.474Z,3.67
2019-03-25T17:42:12.129Z,3.60
2019-03-25T17:44:42.672Z,3.10
2019-03-25T17:47:13.097Z,3.60
2019-03-25T17:49:43.546Z,3.60
2019-03-25T17:52:14.123Z,3.70
2019-03-25T17:54:44.650Z,3.53
2019-03-25T17:57:15.100Z,3.00
2019-03-25T17:59:45.552Z,3.30
2019-03-25T18:02:16.078Z,3.70
2019-03-25T18:04:46.500Z,3.37
2019-03-25T18:07:17.017Z,3.40
2019-03-25T18:09:47.536Z,3.10
2019-03-25T18:12:18.023Z,3.03
2019-03-25T18:14:48.465Z,3.57
2019-03-25T18:17:18.901Z,4.23
2019-03-25T18:19:49.384Z,3.40
2019-03-25T18:22:19.912Z,3.13
2019-03-25T18:24:50.357Z,2.77
2019-03-25T18:27:20.827Z,2.90
2019-03-25T18:29:51.362Z,2.07
2019-03-25T18:32:22.045Z,2.40
2019-03-25T18:34:52.597Z,2.40
2019-03-25T18:37:23.083Z,1.97
2019-03-25T18:39:53.614Z,2.00
2019-03-25T18:42:24.137Z,2.20
2019-03-25T18:44:54.797Z,2.10
2019-03-25T18:47:25.428Z,2.30
2019-03-25T18:49:55.921Z,2.37
2019-03-25T18:52:26.584Z,2.53
2019-03-25T18:54:57.080Z,2.90
2019-03-25T18:57:27.631Z,2.57
2019-03-25T18:59:58.205Z,2.80
2019-03-25T19:02:29.418Z,3.10
2019-03-25T19:05:00.250Z,2.70
2019-03-25T19:07:31.137Z,2.83
2019-03-25T19:10:02.618Z,2.50
2019-03-25T19:12:33.222Z,3.37
2019-03-25T19:15:03.686Z,3.10
2019-03-25T19:17:34.173Z,3.07
2019-03-25T19:20:04.979Z,3.33
2019-03-25T19:22:35.438Z,3.03
2019-03-25T19:25:07.276Z,3.37
2019-03-25T19:27:37.727Z,3.43
2019-03-25T19:30:08.590Z,2.90
2019-03-25T19:32:39.087Z,2.93
2019-03-25T19:35:10.096Z,2.90
2019-03-25T19:37:40.628Z,2.80
2019-03-25T19:40:11.308Z,2.70
2019-03-25T19:42:41.747Z,2.63
2019-03-25T19:45:14.048Z,2.73
2019-03-25T19:47:44.664Z,3.00
2019-03-25T19:50:15.582Z,2.53
2019-03-25T19:52:46.169Z,2.87
2019-03-25T19:55:16.767Z,2.97
2019-03-25T19:57:47.377Z,3.33
2019-03-25T20:00:21.736Z,3.10
2019-03-25T20:02:52.195Z,3.43
2019-03-25T20:05:23.699Z,3.40
2019-03-25T20:07:54.220Z,2.90
2019-03-25T20:10:30.676Z,2.47
2019-03-25T20:13:01.112Z,3.10
2019-03-25T20:15:44.943Z,3.13
2019-03-25T20:18:04.379Z,2.80
2019-03-25T20:20:34.934Z,2.50
2019-03-25T20:23:05.661Z,2.73
2019-03-25T20:25:36.195Z,3.00
2019-03-25T20:28:06.873Z,2.73
2019-03-25T20:30:37.596Z,2.40
2019-03-25T20:33:08.197Z,2.90
2019-03-25T20:35:38.629Z,2.87
2019-03-25T20:38:09.306Z,2.70
2019-03-25T20:40:39.900Z,3.03
2019-03-25T20:43:10.401Z,3.20
2019-03-25T20:45:40.983Z,3.10
2019-03-25T20:48:11.740Z,3.20
2019-03-25T20:50:42.312Z,3.47
2019-03-25T20:53:12.695Z,4.17
2019-03-25T20:55:43.248Z,4.03
2019-03-25T20:58:13.616Z,3.90
2019-03-25T21:00:57.503Z,4.33
2019-03-25T21:03:27.949Z,3.90
2019-03-25T21:06:01.542Z,4.60
2019-03-25T21:08:32.087Z,4.27
2019-03-25T21:11:02.510Z,4.37
2019-03-25T21:13:33.127Z,4.83
2019-03-25T21:16:03.903Z,4.80
2019-03-25T21:18:34.534Z,4.43
2019-03-25T21:21:05.044Z,5.37
2019-03-25T21:23:35.600Z,4.50
2019-03-25T21:26:07.458Z,4.93
2019-03-25T21:28:37.884Z,5.13
2019-03-25T21:31:08.456Z,5.33
2019-03-25T21:33:39.088Z,5.13
2019-03-25T21:36:09.600Z,5.73
2019-03-25T21:38:40.068Z,5.53
2019-03-25T21:41:10.564Z,5.40
2019-03-25T21:43:41.013Z,5.47
2019-03-25T21:46:11.510Z,5.33
2019-03-25T21:48:41.945Z,5.90
2019-03-25T21:51:12.365Z,5.80
2019-03-25T21:53:42.817Z,5.30
2019-03-25T21:56:13.267Z,5.93
2019-03-25T21:58:43.702Z,5.07
2019-03-25T22:01:14.199Z,5.57
2019-03-25T22:03:44.733Z,5.37
2019-03-25T22:06:15.197Z,5.17
2019-03-25T22:08:45.695Z,5.77
2019-03-25T22:11:16.149Z,6.03
2019-03-25T22:13:46.602Z,5.33
2019-03-25T22:16:17.205Z,5.33
2019-03-25T22:18:47.656Z,5.77
2019-03-25T22:21:18.008Z,4.60
2019-03-25T22:23:48.672Z,5.63
2019-03-25T22:26:19.122Z,4.77
2019-03-25T22:28:49.627Z,4.63
2019-03-25T22:31:20.048Z,4.70
2019-03-25T22:33:50.445Z,4.60
2019-03-25T22:36:20.891Z,4.33
2019-03-25T22:38:51.321Z,5.13
2019-03-25T22:41:21.789Z,4.30
2019-03-25T22:43:52.231Z,4.87
2019-03-25T22:46:22.732Z,4.77
2019-03-25T22:48:53.244Z,4.70
2019-03-25T22:51:23.696Z,5.20
2019-03-25T22:53:54.134Z,5.10
2019-03-25T22:56:24.583Z,5.40
2019-03-25T22:58:55.233Z,5.23
2019-03-25T23:01:25.917Z,4.73
2019-03-25T23:03:56.349Z,4.57
2019-03-25T23:06:26.891Z,4.73
2019-03-25T23:08:57.313Z,4.70
2019-03-25T23:11:27.828Z,5.20
2019-03-25T23:13:58.281Z,5.27
2019-03-25T23:16:29.023Z,4.67
2019-03-25T23:18:59.571Z,4.67
2019-03-25T23:21:30.030Z,5.03
2019-03-25T23:24:00.633Z,4.93
2019-03-25T23:26:30.976Z,5.20
2019-03-25T23:29:01.393Z,5.10
2019-03-25T23:31:31.987Z,5.57
2019-03-25T23:34:02.536Z,4.73
2019-03-25T23:36:32.983Z,5.23
2019-03-25T23:39:04.805Z,5.17
2019-03-25T23:41:35.616Z,5.33
2019-03-25T23:44:06.148Z,5.27
2019-03-25T23:46:36.592Z,5.87
2019-03-25T23:49:07.077Z,6.10
2019-03-25T23:51:37.581Z,5.87
2019-03-25T23:54:12.279Z,5.40
2019-03-25T23:56:43.292Z,5.60
2019-03-25T23:59:13.881Z,5.83
